createdAt,value
2018-04-27T00:01:42.119Z,95.50
2018-04-27T00:04:21.862Z,95.40
2018-04-27T00:07:00.432Z,95.40
2018-04-27T00:09:36.619Z,95.60
2018-04-27T00:12:20.360Z,95.70
2018-04-27T00:17:58.815Z,95.90
2018-04-27T00:20:32.479Z,96.60
2018-04-27T00:23:07.153Z,97.20
2018-04-27T00:25:41.567Z,97.60
2018-04-27T00:28:16.911Z,98.00
2018-04-27T00:30:51.361Z,98.10
2018-04-27T00:33:24.988Z,98.10
2018-04-27T00:35:58.669Z,98.10
2018-04-27T00:38:34.036Z,98.10
2018-04-27T00:41:08.648Z,98.20
2018-04-27T00:43:42.275Z,98.00
2018-04-27T00:46:16.949Z,97.90
2018-04-27T00:48:50.570Z,97.80
2018-04-27T00:51:24.235Z,97.60
2018-04-27T00:53:57.859Z,97.30
2018-04-27T00:56:33.256Z,97.20
2018-04-27T00:59:07.120Z,97.20
2018-04-27T01:01:41.700Z,97.40
2018-04-27T01:04:15.339Z,97.40
2018-04-27T01:06:49.001Z,97.40
2018-04-27T01:09:22.625Z,97.40
2018-04-27T01:11:57.248Z,97.40
2018-04-27T01:14:30.867Z,97.40
2018-04-27T01:17:04.530Z,97.40
2018-04-27T01:19:38.149Z,97.40
2018-04-27T01:22:11.804Z,97.40
2018-04-27T01:24:45.423Z,97.40
2018-04-27T01:27:20.061Z,97.50
2018-04-27T01:29:53.722Z,97.60
2018-04-27T01:32:27.391Z,97.60
2018-04-27T01:35:01.021Z,97.90
2018-04-27T01:37:34.690Z,98.20
2018-04-27T01:40:08.310Z,98.80
2018-04-27T01:42:41.970Z,98.70
2018-04-27T01:45:15.612Z,98.90
2018-04-27T01:47:50.225Z,99.20
2018-04-27T01:50:24.812Z,99.40
2018-04-27T01:52:59.148Z,99.50
2018-04-27T01:55:33.728Z,99.90
2018-04-27T01:58:08.156Z,99.90
2018-04-27T02:00:43.487Z,99.90
2018-04-27T02:03:17.943Z,99.90
2018-04-27T02:05:52.551Z,99.90
2018-04-27T02:08:27.191Z,99.90
2018-04-27T02:11:00.835Z,99.90
2018-04-27T02:13:34.507Z,99.90
2018-04-27T02:16:08.130Z,99.90
2018-04-27T02:18:41.807Z,99.90
2018-04-27T02:21:15.431Z,99.90
2018-04-27T02:23:49.102Z,99.90
2018-04-27T02:26:22.726Z,99.70
2018-04-27T02:28:56.388Z,99.70
2018-04-27T02:31:30.008Z,99.70
2018-04-27T02:34:03.668Z,99.80
2018-04-27T02:36:38.054Z,99.90
2018-04-27T02:39:11.720Z,99.90
2018-04-27T02:41:45.347Z,99.90
2018-04-27T02:44:19.662Z,99.80
2018-04-27T02:46:53.296Z,99.80
2018-04-27T02:49:28.714Z,99.40
2018-04-27T02:52:02.339Z,99.40
2018-04-27T02:54:37.736Z,99.10
2018-04-27T02:57:11.365Z,99.10
2018-04-27T02:59:45.019Z,99.10
2018-04-27T03:02:18.817Z,99.20
2018-04-27T03:04:53.484Z,99.20
2018-04-27T03:07:27.110Z,99.00
2018-04-27T03:10:00.602Z,98.80
2018-04-27T03:12:35.001Z,98.90
2018-04-27T03:15:08.707Z,98.90
2018-04-27T03:17:42.326Z,98.80
2018-04-27T03:20:16.754Z,98.80
2018-04-27T03:22:50.377Z,98.80
2018-04-27T03:25:24.992Z,98.80
2018-04-27T03:27:58.616Z,98.80
2018-04-27T03:30:32.285Z,98.80
2018-04-27T03:33:05.903Z,98.70
2018-04-27T03:35:39.567Z,98.70
2018-04-27T03:38:13.975Z,98.70
2018-04-27T03:40:47.635Z,98.70
2018-04-27T03:43:21.259Z,98.70
2018-04-27T03:45:54.928Z,98.50
2018-04-27T03:48:28.543Z,98.50
2018-04-27T03:51:02.202Z,98.20
2018-04-27T03:53:35.826Z,98.10
2018-04-27T03:56:09.491Z,98.10
2018-04-27T03:58:44.836Z,97.80
2018-04-27T04:01:31.629Z,97.90
2018-04-27T04:04:16.420Z,97.90
2018-04-27T04:06:50.489Z,97.60
2018-04-27T04:09:24.116Z,97.80
2018-04-27T04:11:58.579Z,97.70
2018-04-27T04:14:32.202Z,97.70
2018-04-27T04:17:05.895Z,97.80
2018-04-27T04:19:39.520Z,97.80
2018-04-27T04:22:13.171Z,97.80
2018-04-27T04:24:46.789Z,97.80
2018-04-27T04:27:20.443Z,97.60
2018-04-27T04:29:54.069Z,97.60
2018-04-27T04:32:27.737Z,97.40
2018-04-27T04:35:16.824Z,97.50
2018-04-27T04:37:51.333Z,97.00
2018-04-27T04:40:24.957Z,97.00
2018-04-27T04:42:58.634Z,96.80
2018-04-27T04:45:32.470Z,96.10
2018-04-27T04:48:07.696Z,96.20
2018-04-27T04:50:41.318Z,96.10
2018-04-27T04:53:15.943Z,95.80
2018-04-27T04:55:49.565Z,95.60
2018-04-27T04:58:23.223Z,95.20
2018-04-27T05:00:56.636Z,94.80
2018-04-27T05:03:30.123Z,94.40
2018-04-27T05:06:03.523Z,94.20
2018-04-27T05:08:37.186Z,93.10
2018-04-27T05:11:10.829Z,93.30
2018-04-27T05:13:45.484Z,92.90
2018-04-27T05:16:18.896Z,92.50
2018-04-27T05:18:54.484Z,91.80
2018-04-27T05:21:29.062Z,91.80
2018-04-27T05:24:03.486Z,90.90
2018-04-27T05:26:37.748Z,90.60
2018-04-27T05:29:11.415Z,90.60
2018-04-27T05:31:44.698Z,89.90
2018-04-27T05:34:18.112Z,89.10
2018-04-27T05:36:52.398Z,88.90
2018-04-27T05:39:26.164Z,87.40
2018-04-27T05:41:59.138Z,87.50
2018-04-27T05:44:32.472Z,86.80
2018-04-27T05:47:06.567Z,83.30
2018-04-27T05:49:39.906Z,83.30
2018-04-27T05:52:13.561Z,81.00
2018-04-27T05:54:47.231Z,75.10
2018-04-27T05:57:20.865Z,69.60
2018-04-27T05:59:55.520Z,68.60
2018-04-27T06:02:29.151Z,67.50
2018-04-27T06:05:03.605Z,67.00
2018-04-27T06:07:38.243Z,67.00
2018-04-27T06:10:12.694Z,66.30
2018-04-27T06:12:46.556Z,66.30
2018-04-27T06:15:20.220Z,64.60
2018-04-27T06:17:54.844Z,62.90
2018-04-27T06:20:28.520Z,59.80
2018-04-27T06:23:02.147Z,56.10
2018-04-27T06:25:35.813Z,54.10
2018-04-27T06:28:09.437Z,54.30
2018-04-27T06:30:43.427Z,53.00
2018-04-27T06:33:17.060Z,51.40
2018-04-27T06:35:51.800Z,48.30
2018-04-27T06:38:25.997Z,48.20
2018-04-27T06:41:00.535Z,44.70
2018-04-27T06:43:34.114Z,45.20
2018-04-27T06:46:08.445Z,43.70
2018-04-27T06:48:42.944Z,43.70
2018-04-27T06:51:17.816Z,43.10
2018-04-27T06:53:52.017Z,43.70
2018-04-27T06:56:25.794Z,44.00
2018-04-27T06:59:00.086Z,46.00
2018-04-27T07:01:33.671Z,45.90
2018-04-27T07:04:07.531Z,45.40
2018-04-27T07:06:42.857Z,46.50
2018-04-27T07:09:17.148Z,46.40
2018-04-27T07:11:50.704Z,46.20
2018-04-27T07:14:24.445Z,46.40
2018-04-27T07:16:58.722Z,46.40
2018-04-27T07:19:33.062Z,44.60
2018-04-27T07:22:08.229Z,44.30
2018-04-27T07:24:43.425Z,43.90
2018-04-27T07:27:18.584Z,44.70
2018-04-27T07:29:53.798Z,44.80
2018-04-27T07:32:27.662Z,45.30
2018-04-27T07:35:02.656Z,44.90
2018-04-27T07:37:36.532Z,44.90
2018-04-27T07:40:10.764Z,45.20
2018-04-27T07:42:44.290Z,45.00
2018-04-27T07:45:18.838Z,45.70
2018-04-27T07:47:53.663Z,46.50
2018-04-27T07:50:28.545Z,46.90
2018-04-27T07:53:02.463Z,45.30
2018-04-27T07:55:37.018Z,46.40
2018-04-27T07:58:11.324Z,48.30
2018-04-27T08:00:45.663Z,48.40
2018-04-27T08:03:25.667Z,48.10
2018-04-27T08:05:59.925Z,48.10
2018-04-27T08:08:34.249Z,47.80
2018-04-27T08:11:07.834Z,47.80
2018-04-27T08:13:42.711Z,47.30
2018-04-27T08:16:16.285Z,47.30
2018-04-27T08:18:49.903Z,48.70
2018-04-27T08:21:23.542Z,47.10
2018-04-27T08:23:57.111Z,43.10
2018-04-27T08:26:30.679Z,43.50
2018-04-27T08:29:06.059Z,43.60
2018-04-27T08:31:41.394Z,43.50
2018-04-27T08:34:14.757Z,43.70
2018-04-27T08:36:49.898Z,43.80
2018-04-27T08:39:24.130Z,42.80
2018-04-27T08:41:58.327Z,42.70
2018-04-27T08:44:32.560Z,41.70
2018-04-27T08:47:06.748Z,43.70
2018-04-27T08:49:41.000Z,43.50
2018-04-27T08:52:14.537Z,44.40
2018-04-27T08:54:50.186Z,43.10
2018-04-27T08:57:24.477Z,44.00
2018-04-27T08:59:59.018Z,44.00
2018-04-27T09:02:33.984Z,45.00
2018-04-27T09:05:08.213Z,45.00
2018-04-27T09:07:43.850Z,43.80
2018-04-27T09:10:19.028Z,44.60
2018-04-27T09:12:53.224Z,45.60
2018-04-27T09:15:27.451Z,45.60
2018-04-27T09:18:01.655Z,44.60
2018-04-27T09:20:35.876Z,44.70
2018-04-27T09:23:11.638Z,43.80
2018-04-27T09:25:46.544Z,44.50
2018-04-27T09:28:20.769Z,45.10
2018-04-27T09:30:55.113Z,44.90
2018-04-27T09:33:31.057Z,45.40
2018-04-27T09:36:05.972Z,45.00
2018-04-27T09:38:42.058Z,42.40
2018-04-27T09:41:15.443Z,44.40
2018-04-27T09:43:49.003Z,45.40
2018-04-27T09:46:23.268Z,45.90
2018-04-27T09:48:57.594Z,43.50
2018-04-27T09:51:32.016Z,43.40
2018-04-27T09:54:06.983Z,43.30
2018-04-27T09:56:41.224Z,43.20
2018-04-27T09:59:16.387Z,43.10
2018-04-27T10:01:52.347Z,43.90
2018-04-27T10:04:25.641Z,43.90
2018-04-27T10:06:59.218Z,41.60
2018-04-27T10:09:32.844Z,42.70
2018-04-27T10:12:06.180Z,43.80
2018-04-27T10:14:40.576Z,45.10
2018-04-27T10:17:14.799Z,45.10
2018-04-27T10:19:48.984Z,42.70
2018-04-27T10:22:23.263Z,42.40
2018-04-27T10:24:57.043Z,44.80
2018-04-27T10:27:32.236Z,44.00
2018-04-27T10:30:06.475Z,43.40
2018-04-27T10:32:40.657Z,41.60
2018-04-27T10:35:16.628Z,42.60
2018-04-27T10:37:50.842Z,42.40
2018-04-27T10:40:25.733Z,42.60
2018-04-27T10:42:59.931Z,42.20
2018-04-27T10:45:33.631Z,41.70
2018-04-27T10:48:07.584Z,45.90
2018-04-27T10:50:40.389Z,45.90
2018-04-27T10:53:13.375Z,45.20
2018-04-27T10:55:46.388Z,46.60
2018-04-27T10:58:20.315Z,46.40
2018-04-27T11:00:53.318Z,45.30
2018-04-27T11:03:28.752Z,46.00
2018-04-27T11:06:02.218Z,45.90
2018-04-27T11:08:35.996Z,48.20
2018-04-27T11:11:10.551Z,48.10
2018-04-27T11:13:44.113Z,45.20
2018-04-27T11:16:18.691Z,42.80
2018-04-27T11:18:52.449Z,43.50
2018-04-27T11:21:26.189Z,44.20
2018-04-27T11:24:00.195Z,44.30
2018-04-27T11:26:33.187Z,46.00
2018-04-27T11:29:08.389Z,44.90
2018-04-27T11:31:42.603Z,42.60
2018-04-27T11:34:16.788Z,43.20
2018-04-27T11:36:51.015Z,42.70
2018-04-27T11:39:26.195Z,42.70
2018-04-27T11:42:01.375Z,42.70
2018-04-27T11:44:36.315Z,42.20
2018-04-27T11:47:09.900Z,42.80
2018-04-27T11:49:44.853Z,40.90
2018-04-27T11:52:18.410Z,40.90
2018-04-27T11:54:52.712Z,39.70
2018-04-27T11:57:27.532Z,39.90
2018-04-27T12:00:01.087Z,43.90
2018-04-27T12:02:35.083Z,44.20
2018-04-27T12:05:08.573Z,44.20
2018-04-27T12:07:42.908Z,43.70
2018-04-27T12:10:16.455Z,43.70
2018-04-27T12:12:51.320Z,41.40
2018-04-27T12:15:24.904Z,42.70
2018-04-27T12:17:59.594Z,46.60
2018-04-27T12:20:34.809Z,46.50
2018-04-27T12:23:10.020Z,46.40
2018-04-27T12:25:43.559Z,45.70
2018-04-27T12:28:17.454Z,43.80
2018-04-27T12:30:51.734Z,44.30
2018-04-27T12:33:26.063Z,40.60
2018-04-27T12:35:59.597Z,42.30
2018-04-27T12:38:33.157Z,42.70
2018-04-27T12:41:06.695Z,42.50
2018-04-27T12:43:41.544Z,38.30
2018-04-27T12:46:15.165Z,38.80
2018-04-27T12:48:49.296Z,39.00
2018-04-27T12:51:22.822Z,38.90
2018-04-27T12:53:56.427Z,37.60
2018-04-27T12:56:29.958Z,39.00
2018-04-27T12:59:04.192Z,36.70
2018-04-27T13:01:39.139Z,37.50
2018-04-27T13:04:12.709Z,37.60
2018-04-27T13:06:47.013Z,40.70
2018-04-27T13:09:21.583Z,40.70
2018-04-27T13:11:55.160Z,40.70
2018-04-27T13:14:29.819Z,43.20
2018-04-27T13:17:03.345Z,43.40
2018-04-27T13:19:38.968Z,42.50
2018-04-27T13:22:13.198Z,41.10
2018-04-27T13:24:47.393Z,41.40
2018-04-27T13:27:21.626Z,40.20
2018-04-27T13:29:55.843Z,39.70
2018-04-27T13:32:30.064Z,39.70
2018-04-27T13:35:04.253Z,40.60
2018-04-27T13:37:38.491Z,40.40
2018-04-27T13:40:12.373Z,38.30
2018-04-27T13:42:46.593Z,37.70
2018-04-27T13:45:20.791Z,38.20
2018-04-27T13:47:55.979Z,40.00
2018-04-27T13:50:30.479Z,41.90
2018-04-27T13:53:04.416Z,41.00
2018-04-27T13:55:38.719Z,40.70
2018-04-27T13:58:12.284Z,40.70
2018-04-27T14:00:46.218Z,38.30
2018-04-27T14:03:20.797Z,39.00
2018-04-27T14:05:56.143Z,38.00
2018-04-27T14:08:32.601Z,40.50
2018-04-27T14:11:05.574Z,39.80
2018-04-27T14:13:49.889Z,42.00
2018-04-27T14:16:23.079Z,42.50
2018-04-27T14:19:05.634Z,42.50
2018-04-27T14:21:43.191Z,43.80
2018-04-27T14:24:17.783Z,43.40
2018-04-27T14:29:32.868Z,42.10
2018-04-27T14:32:07.458Z,42.90
2018-04-27T14:34:51.384Z,42.00
2018-04-27T14:37:25.519Z,44.10
2018-04-27T14:39:59.951Z,42.20
2018-04-27T14:45:39.610Z,43.30
2018-04-27T14:51:21.432Z,42.10
2018-04-27T14:54:04.580Z,42.10
2018-04-27T14:56:42.663Z,42.10
2018-04-27T14:59:16.483Z,41.30
2018-04-27T15:01:49.520Z,41.20
2018-04-27T15:04:23.146Z,42.00
2018-04-27T15:06:56.827Z,43.80
2018-04-27T15:09:31.417Z,45.00
2018-04-27T15:12:04.457Z,43.90
2018-04-27T15:14:38.401Z,44.40
2018-04-27T15:17:12.898Z,44.00
2018-04-27T15:22:43.968Z,44.90
2018-04-27T15:30:52.397Z,44.60
2018-04-27T15:33:26.229Z,45.40
2018-04-27T15:35:59.641Z,45.90
2018-04-27T15:38:33.640Z,45.40
2018-04-27T15:41:06.648Z,44.60
2018-04-27T15:43:39.622Z,46.30
2018-04-27T15:46:13.956Z,46.00
2018-04-27T15:48:47.244Z,45.30
2018-04-27T15:51:20.253Z,45.50
2018-04-27T15:53:54.055Z,45.60
2018-04-27T15:56:36.960Z,44.10
2018-04-27T15:59:15.537Z,44.10
2018-04-27T16:01:52.204Z,45.80
2018-04-27T16:04:33.765Z,46.70
2018-04-27T16:07:08.633Z,46.50
2018-04-27T16:09:42.571Z,46.50
2018-04-27T16:12:16.346Z,45.40
2018-04-27T16:14:49.710Z,45.40
2018-04-27T16:17:22.884Z,46.60
2018-04-27T16:19:55.893Z,47.90
2018-04-27T16:22:28.691Z,47.10
2018-04-27T16:25:01.737Z,47.50
2018-04-27T16:27:35.715Z,48.30
2018-04-27T16:30:08.691Z,48.00
2018-04-27T16:32:41.743Z,49.10
2018-04-27T16:35:14.727Z,48.80
2018-04-27T16:37:48.704Z,50.10
2018-04-27T16:40:22.694Z,49.50
2018-04-27T16:42:58.100Z,50.00
2018-04-27T16:45:31.732Z,50.00
2018-04-27T16:48:05.520Z,49.70
2018-04-27T16:50:38.517Z,49.60
2018-04-27T16:53:12.181Z,49.70
2018-04-27T16:55:46.121Z,49.30
2018-04-27T16:58:20.434Z,48.90
2018-04-27T17:00:53.432Z,49.40
2018-04-27T17:03:27.230Z,50.50
2018-04-27T17:06:00.600Z,50.50
2018-04-27T17:08:34.601Z,51.00
2018-04-27T17:11:07.597Z,51.20
2018-04-27T17:13:40.915Z,51.60
2018-04-27T17:16:14.656Z,51.30
2018-04-27T17:18:47.680Z,51.30
2018-04-27T17:21:20.672Z,50.00
2018-04-27T17:23:53.681Z,51.30
2018-04-27T17:26:27.501Z,52.00
2018-04-27T17:29:00.668Z,52.00
2018-04-27T17:31:34.411Z,52.40
2018-04-27T17:34:07.496Z,52.20
2018-04-27T17:36:40.550Z,52.20
2018-04-27T17:39:14.433Z,52.80
2018-04-27T17:41:47.428Z,52.80
2018-04-27T17:44:20.545Z,53.20
2018-04-27T17:46:54.671Z,53.50
2018-04-27T17:49:28.654Z,53.30
2018-04-27T17:52:03.073Z,54.00
2018-04-27T17:54:37.189Z,54.60
2018-04-27T17:57:12.578Z,55.00
2018-04-27T17:59:45.942Z,55.00
2018-04-27T18:02:20.232Z,54.40
2018-04-27T18:04:54.340Z,54.80
2018-04-27T18:07:28.781Z,55.10
2018-04-27T18:10:02.486Z,54.60
2018-04-27T18:12:36.136Z,54.90
2018-04-27T18:15:09.483Z,55.60
2018-04-27T18:17:42.743Z,55.40
2018-04-27T18:20:15.559Z,55.80
2018-04-27T18:22:48.877Z,56.10
2018-04-27T18:25:23.550Z,56.50
2018-04-27T18:27:56.685Z,56.30
2018-04-27T18:30:30.657Z,57.00
2018-04-27T18:33:05.301Z,56.90
2018-04-27T18:35:38.995Z,57.70
2018-04-27T18:38:12.198Z,57.50
2018-04-27T18:40:46.344Z,57.70
2018-04-27T18:43:22.085Z,57.20
2018-04-27T18:46:00.244Z,57.70
2018-04-27T18:48:34.252Z,57.70
2018-04-27T18:51:08.951Z,57.60
2018-04-27T18:53:41.959Z,57.60
2018-04-27T18:56:18.191Z,58.10
2018-04-27T18:58:56.944Z,57.70
2018-04-27T19:01:29.987Z,57.50
2018-04-27T19:04:03.010Z,57.90
2018-04-27T19:06:35.988Z,58.40
2018-04-27T19:09:09.760Z,58.50
2018-04-27T19:11:42.736Z,58.10
2018-04-27T19:14:17.203Z,58.50
2018-04-27T19:16:51.264Z,58.30
2018-04-27T19:19:24.293Z,58.50
2018-04-27T19:21:58.029Z,58.40
2018-04-27T19:24:32.039Z,58.30
2018-04-27T19:27:05.009Z,58.80
2018-04-27T19:29:38.025Z,58.90
2018-04-27T19:32:13.407Z,58.30
2018-04-27T19:34:46.517Z,58.80
2018-04-27T19:37:19.490Z,58.80
2018-04-27T19:39:53.313Z,59.30
2018-04-27T19:42:26.303Z,59.30
2018-04-27T19:44:59.313Z,59.70
2018-04-27T19:47:32.286Z,59.80
2018-04-27T19:50:05.665Z,59.40
2018-04-27T19:52:38.646Z,59.40
2018-04-27T19:55:11.667Z,59.90
2018-04-27T19:57:44.652Z,60.00
2018-04-27T20:00:18.636Z,60.30
2018-04-27T20:02:52.636Z,60.60
2018-04-27T20:05:25.694Z,59.80
2018-04-27T20:07:59.433Z,60.10
2018-04-27T20:10:37.393Z,60.00
2018-04-27T20:13:12.508Z,59.60
2018-04-27T20:15:46.280Z,60.60
2018-04-27T20:18:21.103Z,60.10
2018-04-27T20:20:54.128Z,60.00
2018-04-27T20:23:33.037Z,60.10
2018-04-27T20:26:06.044Z,59.90
2018-04-27T20:28:40.816Z,59.80
2018-04-27T20:31:14.808Z,59.90
2018-04-27T20:33:47.574Z,59.50
2018-04-27T20:36:21.616Z,59.70
2018-04-27T20:38:55.381Z,59.60
2018-04-27T20:41:30.147Z,59.80
2018-04-27T20:44:04.852Z,59.60
2018-04-27T20:46:37.867Z,59.20
2018-04-27T20:49:10.865Z,59.60
2018-04-27T20:51:43.877Z,59.70
2018-04-27T20:54:16.879Z,59.90
2018-04-27T20:56:50.655Z,59.50
2018-04-27T20:59:24.590Z,59.40
2018-04-27T21:01:59.289Z,59.40
2018-04-27T21:04:32.261Z,59.30
2018-04-27T21:07:06.244Z,59.10
2018-04-27T21:09:39.208Z,58.50
2018-04-27T21:12:12.212Z,58.40
2018-04-27T21:14:45.196Z,57.60
2018-04-27T21:17:18.227Z,57.90
2018-04-27T21:19:51.223Z,58.10
2018-04-27T21:22:24.033Z,58.00
2018-04-27T21:24:56.811Z,58.50
2018-04-27T21:27:37.417Z,59.00
2018-04-27T21:30:10.398Z,58.90
2018-04-27T21:32:43.407Z,59.80
2018-04-27T21:35:16.391Z,59.40
2018-04-27T21:37:59.344Z,59.40
2018-04-27T21:40:34.069Z,59.60
2018-04-27T21:43:07.829Z,59.60
2018-04-27T21:45:40.811Z,59.50
2018-04-27T21:48:13.832Z,60.60
2018-04-27T21:50:47.581Z,60.60
2018-04-27T21:53:20.637Z,60.60
2018-04-27T21:55:53.601Z,60.70
2018-04-27T21:58:29.314Z,60.70
2018-04-27T22:01:02.342Z,60.60
2018-04-27T22:03:38.160Z,61.10
2018-04-27T22:06:15.022Z,61.10
2018-04-27T22:08:50.981Z,61.70
2018-04-27T22:14:29.863Z,61.60
2018-04-27T22:17:09.455Z,62.70
2018-04-27T22:19:42.462Z,62.70
2018-04-27T22:22:16.387Z,62.90
2018-04-27T22:24:50.186Z,63.70
2018-04-27T22:27:30.565Z,63.70
2018-04-27T22:30:03.958Z,63.60
2018-04-27T22:32:38.484Z,64.10
2018-04-27T22:35:12.324Z,64.50
2018-04-27T22:37:45.453Z,64.50
2018-04-27T22:40:25.370Z,64.60
2018-04-27T22:43:00.083Z,65.10
2018-04-27T22:45:35.818Z,65.30
2018-04-27T22:48:10.553Z,65.30
2018-04-27T22:50:52.406Z,64.80
2018-04-27T22:53:27.610Z,65.20
2018-04-27T22:56:00.650Z,65.10
2018-04-27T22:58:34.575Z,65.20
2018-04-27T23:01:08.544Z,64.10
2018-04-27T23:03:43.084Z,64.30
2018-04-27T23:06:17.067Z,64.20
2018-04-27T23:08:51.739Z,64.10
2018-04-27T23:11:27.483Z,64.10
2018-04-27T23:14:16.176Z,64.30
2018-04-27T23:16:52.525Z,64.00
2018-04-27T23:19:27.317Z,63.80
2018-04-27T23:22:05.328Z,63.60
2018-04-27T23:24:38.297Z,63.50
2018-04-27T23:27:11.318Z,63.50
2018-04-27T23:29:45.317Z,63.40
2018-04-27T23:32:18.338Z,63.50
2018-04-27T23:34:51.328Z,63.30
2018-04-27T23:37:25.348Z,62.90
2018-04-27T23:39:59.094Z,63.00
2018-04-27T23:42:31.928Z,62.60
2018-04-27T23:45:04.911Z,63.10
2018-04-27T23:47:37.940Z,63.30
2018-04-27T23:50:14.703Z,63.50
2018-04-27T23:52:47.506Z,63.20
2018-04-27T23:55:21.404Z,63.60
2018-04-27T23:57:54.430Z,63.50
